createdAt,value
2023-04-21T00:01:26.189Z,101026.00
2023-04-21T00:03:55.500Z,101013.00
2023-04-21T00:06:23.552Z,101015.00
2023-04-21T00:08:51.614Z,101007.00
2023-04-21T00:11:19.644Z,101010.00
2023-04-21T00:13:47.377Z,101008.00
2023-04-21T00:16:15.170Z,101006.00
2023-04-21T00:18:44.267Z,100997.00
2023-04-21T00:21:12.090Z,101003.00
2023-04-21T00:23:39.791Z,100997.00
2023-04-21T00:26:07.670Z,100997.00
2023-04-21T00:28:35.417Z,100998.00
2023-04-21T00:31:03.204Z,101003.00
2023-04-21T00:33:31.031Z,100992.00
2023-04-21T00:36:00.120Z,101000.00
2023-04-21T00:38:27.918Z,100986.00
2023-04-21T00:40:55.670Z,100981.00
2023-04-21T00:43:23.387Z,100984.00
2023-04-21T00:45:51.130Z,100982.00
2023-04-21T00:48:18.883Z,100982.00
2023-04-21T00:50:46.989Z,100973.00
2023-04-21T00:53:16.936Z,100964.00
2023-04-21T00:55:44.876Z,100966.00
2023-04-21T00:58:12.681Z,100960.00
2023-04-21T01:00:40.480Z,100964.00
2023-04-21T01:03:08.773Z,100961.00
2023-04-21T01:05:37.284Z,100956.00
2023-04-21T01:08:07.316Z,100957.00
2023-04-21T01:10:36.391Z,100957.00
2023-04-21T01:13:04.199Z,100951.00
2023-04-21T01:15:32.035Z,100958.00
2023-04-21T01:17:59.891Z,100963.00
2023-04-21T01:20:29.763Z,100946.00
2023-04-21T01:22:58.872Z,100950.00
2023-04-21T01:25:28.514Z,100944.00
2023-04-21T01:27:56.303Z,100931.00
2023-04-21T01:30:24.134Z,100945.00
2023-04-21T01:32:51.962Z,100947.00
2023-04-21T01:35:19.793Z,100951.00
2023-04-21T01:37:47.535Z,100942.00
2023-04-21T01:40:16.624Z,100951.00
2023-04-21T01:42:44.873Z,100946.00
2023-04-21T01:45:13.170Z,100954.00
2023-04-21T01:47:40.989Z,100950.00
2023-04-21T01:50:10.004Z,100954.00
2023-04-21T01:52:37.781Z,100952.00
2023-04-21T01:55:06.213Z,100953.00
2023-04-21T01:57:36.171Z,100947.00
2023-04-21T02:00:04.264Z,100960.00
2023-04-21T02:02:32.033Z,100948.00
2023-04-21T02:04:59.907Z,100951.00
2023-04-21T02:07:27.675Z,100952.00
2023-04-21T02:09:55.385Z,100950.00
2023-04-21T02:12:23.187Z,100949.00
2023-04-21T02:14:52.374Z,100940.00
2023-04-21T02:17:20.091Z,100941.00
2023-04-21T02:19:47.804Z,100944.00
2023-04-21T02:22:15.573Z,100923.00
2023-04-21T02:24:43.292Z,100942.00
2023-04-21T02:27:11.067Z,100938.00
2023-04-21T02:29:38.760Z,100943.00
2023-04-21T02:32:22.178Z,100943.00
2023-04-21T02:34:53.055Z,100941.00
2023-04-21T02:37:20.941Z,100944.00
2023-04-21T02:39:48.636Z,100930.00
2023-04-21T02:42:16.366Z,100942.00
2023-04-21T02:44:44.080Z,100935.00
2023-04-21T02:47:13.167Z,100939.00
2023-04-21T02:49:44.417Z,100947.00
2023-04-21T02:52:12.168Z,100932.00
2023-04-21T02:54:39.938Z,100948.00
2023-04-21T02:57:07.694Z,100948.00
2023-04-21T02:59:35.476Z,100952.00
2023-04-21T03:02:04.260Z,100963.00
2023-04-21T03:04:34.181Z,100954.00
2023-04-21T03:07:02.079Z,100951.00
2023-04-21T03:09:29.888Z,100952.00
2023-04-21T03:11:57.573Z,100953.00
2023-04-21T03:14:25.315Z,100939.00
2023-04-21T03:16:53.291Z,100943.00
2023-04-21T03:19:21.433Z,100942.00
2023-04-21T03:21:50.830Z,100942.00
2023-04-21T03:24:19.313Z,100944.00
2023-04-21T03:26:47.142Z,100947.00
2023-04-21T03:29:14.948Z,100936.00
2023-04-21T03:31:42.844Z,100942.00
2023-04-21T03:34:10.682Z,100949.00
2023-04-21T03:36:38.371Z,100936.00
2023-04-21T03:39:19.064Z,100947.00
2023-04-21T03:41:47.380Z,100952.00
2023-04-21T03:44:15.212Z,100948.00
2023-04-21T03:46:42.958Z,100957.00
2023-04-21T03:49:10.738Z,100956.00
2023-04-21T03:51:38.538Z,100952.00
2023-04-21T03:54:08.414Z,100949.00
2023-04-21T03:56:36.189Z,100959.00
2023-04-21T03:59:03.956Z,100958.00
2023-04-21T04:01:31.639Z,100963.00
2023-04-21T04:03:59.732Z,100955.00
2023-04-21T04:06:28.397Z,100949.00
2023-04-21T04:08:56.134Z,100945.00
2023-04-21T04:11:25.247Z,100952.00
2023-04-21T04:13:52.980Z,100952.00
2023-04-21T04:16:23.112Z,100951.00
2023-04-21T04:18:51.160Z,100946.00
2023-04-21T04:21:18.958Z,100952.00
2023-04-21T04:23:46.741Z,100950.00
2023-04-21T04:26:14.548Z,100937.00
2023-04-21T04:28:43.734Z,100932.00
2023-04-21T04:31:13.626Z,100941.00
2023-04-21T04:33:42.560Z,100938.00
2023-04-21T04:36:12.048Z,100937.00
2023-04-21T04:38:40.345Z,100944.00
2023-04-21T04:41:08.975Z,100940.00
2023-04-21T04:43:39.039Z,100953.00
2023-04-21T04:46:09.228Z,100954.00
2023-04-21T04:48:37.177Z,100948.00
2023-04-21T04:51:05.147Z,100956.00
2023-04-21T04:53:33.006Z,100952.00
2023-04-21T04:56:00.731Z,100957.00
2023-04-21T04:58:28.466Z,100935.00
2023-04-21T05:00:56.299Z,100971.00
2023-04-21T05:03:25.656Z,100961.00
2023-04-21T05:05:54.217Z,100964.00
2023-04-21T05:08:21.953Z,100970.00
2023-04-21T05:10:49.658Z,100962.00
2023-04-21T05:13:18.345Z,100951.00
2023-04-21T05:15:46.079Z,100952.00
2023-04-21T05:18:13.837Z,100968.00
2023-04-21T05:20:44.488Z,100967.00
2023-04-21T05:23:12.228Z,100956.00
2023-04-21T05:25:40.263Z,100962.00
2023-04-21T05:28:08.103Z,100970.00
2023-04-21T05:30:36.513Z,100963.00
2023-04-21T05:33:04.579Z,100966.00
2023-04-21T05:35:32.391Z,100960.00
2023-04-21T05:38:01.439Z,100957.00
2023-04-21T05:40:29.237Z,100959.00
2023-04-21T05:42:57.040Z,100964.00
2023-04-21T05:45:24.788Z,100962.00
2023-04-21T05:47:52.756Z,100967.00
2023-04-21T05:50:20.637Z,100970.00
2023-04-21T05:52:48.351Z,100976.00
2023-04-21T05:55:17.448Z,100967.00
2023-04-21T05:57:45.173Z,100973.00
2023-04-21T06:00:14.173Z,100966.00
2023-04-21T06:02:41.975Z,100965.00
2023-04-21T06:05:10.597Z,100962.00
2023-04-21T06:07:38.498Z,100962.00
2023-04-21T06:10:07.341Z,100964.00
2023-04-21T06:12:36.426Z,100950.00
2023-04-21T06:15:04.865Z,100957.00
2023-04-21T06:17:32.679Z,100946.00
2023-04-21T06:20:00.449Z,100938.00
2023-04-21T06:22:28.623Z,100939.00
2023-04-21T06:24:56.949Z,100937.00
2023-04-21T06:27:25.579Z,100937.00
2023-04-21T06:29:56.896Z,100943.00
2023-04-21T06:32:24.738Z,100942.00
2023-04-21T06:34:52.496Z,100932.00
2023-04-21T06:37:20.250Z,100937.00
2023-04-21T06:39:48.110Z,100921.00
2023-04-21T06:42:16.504Z,100930.00
2023-04-21T06:44:44.286Z,100920.00
2023-04-21T06:47:13.380Z,100930.00
2023-04-21T06:49:41.148Z,100925.00
2023-04-21T06:52:08.981Z,100925.00
2023-04-21T06:54:37.503Z,100929.00
2023-04-21T06:57:05.722Z,100924.00
2023-04-21T06:59:34.342Z,100903.00
2023-04-21T07:02:02.143Z,100923.00
2023-04-21T07:04:32.310Z,100917.00
2023-04-21T07:07:03.014Z,100925.00
2023-04-21T07:09:33.790Z,100917.00
2023-04-21T07:12:02.739Z,100924.00
2023-04-21T07:14:30.830Z,100925.00
2023-04-21T07:16:58.623Z,100934.00
2023-04-21T07:19:26.487Z,100933.00
2023-04-21T07:21:55.617Z,100931.00
2023-04-21T07:24:23.384Z,100925.00
2023-04-21T07:26:51.492Z,100924.00
2023-04-21T07:29:19.352Z,100938.00
2023-04-21T07:31:48.288Z,100936.00
2023-04-21T07:34:16.267Z,100938.00
2023-04-21T07:36:44.057Z,100922.00
2023-04-21T07:39:13.264Z,100924.00
2023-04-21T07:41:41.126Z,100923.00
2023-04-21T07:44:09.015Z,100930.00
2023-04-21T07:46:36.826Z,100924.00
2023-04-21T07:49:04.553Z,100914.00
2023-04-21T07:51:32.769Z,100912.00
2023-04-21T07:54:00.742Z,100913.00
2023-04-21T07:56:30.007Z,100914.00
2023-04-21T07:58:57.738Z,100907.00
2023-04-21T08:01:25.590Z,100906.00
2023-04-21T08:03:53.414Z,100898.00
2023-04-21T08:06:21.559Z,100915.00
2023-04-21T08:08:50.436Z,100909.00
2023-04-21T08:11:18.359Z,100913.00
2023-04-21T08:13:47.541Z,100908.00
2023-04-21T08:16:15.425Z,100901.00
2023-04-21T08:18:43.251Z,100912.00
2023-04-21T08:21:10.941Z,100906.00
2023-04-21T08:23:38.647Z,100903.00
2023-04-21T08:26:06.636Z,100902.00
2023-04-21T08:28:34.409Z,100892.00
2023-04-21T08:31:04.849Z,100907.00
2023-04-21T08:33:33.724Z,100902.00
2023-04-21T08:36:09.899Z,100900.00
2023-04-21T08:38:45.064Z,100913.00
2023-04-21T08:41:13.833Z,100896.00
2023-04-21T08:43:41.623Z,100888.00
2023-04-21T08:46:10.897Z,100885.00
2023-04-21T08:48:40.067Z,100893.00
2023-04-21T08:51:10.502Z,100890.00
2023-04-21T08:53:38.741Z,100898.00
2023-04-21T08:56:11.194Z,100896.00
2023-04-21T08:58:39.623Z,100893.00
2023-04-21T09:01:07.528Z,100901.00
2023-04-21T09:03:37.839Z,100895.00
2023-04-21T09:06:08.207Z,100886.00
2023-04-21T09:08:40.501Z,100886.00
2023-04-21T09:11:08.236Z,100890.00
2023-04-21T09:13:37.528Z,100880.00
2023-04-21T09:16:08.604Z,100879.00
2023-04-21T09:18:40.302Z,100883.00
2023-04-21T09:21:10.618Z,100886.00
2023-04-21T09:23:46.071Z,100877.00
2023-04-21T09:26:14.200Z,100884.00
2023-04-21T09:28:43.307Z,100880.00
2023-04-21T09:31:19.792Z,100872.00
2023-04-21T09:36:23.182Z,100879.00
2023-04-21T09:39:15.421Z,100877.00
2023-04-21T09:41:44.938Z,100866.00
2023-04-21T09:44:12.940Z,100860.00
2023-04-21T09:46:44.743Z,100862.00
2023-04-21T09:49:15.086Z,100872.00
2023-04-21T09:52:10.498Z,100863.00
2023-04-21T09:54:33.781Z,100851.00
2023-04-21T09:57:03.573Z,100857.00
2023-04-21T09:59:34.045Z,100852.00
2023-04-21T10:02:02.415Z,100854.00
2023-04-21T10:04:33.379Z,100857.00
2023-04-21T10:07:01.890Z,100835.00
2023-04-21T10:09:36.434Z,100846.00
2023-04-21T10:12:06.931Z,100848.00
2023-04-21T10:14:36.378Z,100838.00
2023-04-21T10:17:06.739Z,100833.00
2023-04-21T10:19:39.954Z,100837.00
2023-04-21T10:22:09.596Z,100843.00
2023-04-21T10:24:40.053Z,100828.00
2023-04-21T10:27:11.161Z,100828.00
2023-04-21T10:29:52.614Z,100813.00
2023-04-21T10:32:34.606Z,100826.00
2023-04-21T10:35:03.718Z,100821.00
2023-04-21T10:37:32.503Z,100812.00
2023-04-21T10:40:00.337Z,100826.00
2023-04-21T10:42:31.406Z,100799.00
2023-04-21T10:45:12.558Z,100808.00
2023-04-21T10:47:51.976Z,100800.00
2023-04-21T10:50:23.527Z,100804.00
2023-04-21T10:52:59.246Z,100801.00
2023-04-21T10:55:28.950Z,100799.00
2023-04-21T10:57:57.189Z,100796.00
2023-04-21T11:00:27.839Z,100797.00
2023-04-21T11:03:00.739Z,100789.00
2023-04-21T11:05:32.533Z,100784.00
2023-04-21T11:08:07.799Z,100780.00
2023-04-21T11:10:54.362Z,100785.00
2023-04-21T11:13:24.540Z,100780.00
2023-04-21T11:16:02.814Z,100788.00
2023-04-21T11:18:42.555Z,100779.00
2023-04-21T11:21:18.689Z,100773.00
2023-04-21T11:23:54.521Z,100757.00
2023-04-21T11:26:32.830Z,100758.00
2023-04-21T11:29:05.254Z,100751.00
2023-04-21T11:31:33.521Z,100757.00
2023-04-21T11:34:01.855Z,100757.00
2023-04-21T11:36:31.044Z,100751.00
2023-04-21T11:38:59.371Z,100741.00
2023-04-21T11:41:27.232Z,100739.00
2023-04-21T11:43:54.900Z,100750.00
2023-04-21T11:46:26.037Z,100745.00
2023-04-21T11:49:01.071Z,100737.00
2023-04-21T11:51:35.375Z,100745.00
2023-04-21T11:54:04.313Z,100715.00
2023-04-21T11:56:36.416Z,100727.00
2023-04-21T11:59:08.212Z,100732.00
2023-04-21T12:01:36.475Z,100731.00
2023-04-21T12:04:05.815Z,100729.00
2023-04-21T12:06:38.753Z,100729.00
2023-04-21T12:09:06.608Z,100740.00
2023-04-21T12:11:35.968Z,100720.00
2023-04-21T12:14:03.772Z,100735.00
2023-04-21T12:16:31.580Z,100730.00
2023-04-21T12:18:59.383Z,100722.00
2023-04-21T12:21:31.599Z,100725.00
2023-04-21T12:24:00.681Z,100719.00
2023-04-21T12:26:28.373Z,100700.00
2023-04-21T12:28:56.176Z,100719.00
2023-04-21T12:31:23.884Z,100713.00
2023-04-21T12:33:51.714Z,100715.00
2023-04-21T12:36:19.426Z,100709.00
2023-04-21T12:38:47.530Z,100691.00
2023-04-21T12:41:16.649Z,100702.00
2023-04-21T12:43:44.581Z,100712.00
2023-04-21T12:46:12.353Z,100702.00
2023-04-21T12:48:40.195Z,100694.00
2023-04-21T12:51:08.214Z,100709.00
2023-04-21T12:53:36.804Z,100690.00
2023-04-21T12:56:05.774Z,100701.00
2023-04-21T12:58:35.260Z,100678.00
2023-04-21T13:01:04.270Z,100673.00
2023-04-21T13:03:42.361Z,100677.00
2023-04-21T13:06:12.665Z,100682.00
2023-04-21T13:08:40.412Z,100670.00
2023-04-21T13:11:08.157Z,100668.00
2023-04-21T13:13:37.306Z,100675.00
2023-04-21T13:16:05.770Z,100656.00
2023-04-21T13:18:34.837Z,100665.00
2023-04-21T13:21:02.772Z,100662.00
2023-04-21T13:23:30.704Z,100661.00
2023-04-21T13:25:58.442Z,100656.00
2023-04-21T13:28:26.774Z,100657.00
2023-04-21T13:30:55.872Z,100666.00
2023-04-21T13:33:24.672Z,100657.00
2023-04-21T13:35:52.463Z,100654.00
2023-04-21T13:38:20.935Z,100664.00
2023-04-21T13:40:49.131Z,100652.00
2023-04-21T13:43:17.020Z,100649.00
2023-04-21T13:45:46.029Z,100662.00
2023-04-21T13:48:15.163Z,100639.00
2023-04-21T13:50:42.855Z,100644.00
2023-04-21T13:53:10.885Z,100635.00
2023-04-21T13:55:38.607Z,100630.00
2023-04-21T13:58:06.755Z,100639.00
2023-04-21T14:00:34.491Z,100640.00
2023-04-21T14:03:02.385Z,100636.00
2023-04-21T14:05:31.938Z,100632.00
2023-04-21T14:07:59.959Z,100609.00
2023-04-21T14:10:28.034Z,100616.00
2023-04-21T14:12:55.733Z,100615.00
2023-04-21T14:15:23.515Z,100606.00
2023-04-21T14:17:51.323Z,100625.00
2023-04-21T14:20:19.238Z,100608.00
2023-04-21T14:22:48.280Z,100619.00
2023-04-21T14:25:16.190Z,100606.00
2023-04-21T14:27:44.083Z,100612.00
2023-04-21T14:30:13.146Z,100611.00
2023-04-21T14:32:45.186Z,100605.00
2023-04-21T14:35:13.395Z,100593.00
2023-04-21T14:37:42.084Z,100595.00
2023-04-21T14:40:11.931Z,100588.00
2023-04-21T14:42:41.423Z,100590.00
2023-04-21T14:45:10.423Z,100589.00
2023-04-21T14:47:38.316Z,100573.00
2023-04-21T14:50:07.502Z,100578.00
2023-04-21T14:52:36.093Z,100570.00
2023-04-21T14:55:04.409Z,100573.00
2023-04-21T14:57:33.649Z,100572.00
2023-04-21T15:00:02.179Z,100567.00
2023-04-21T15:02:30.915Z,100563.00
2023-04-21T15:04:59.076Z,100561.00
2023-04-21T15:07:26.897Z,100560.00
2023-04-21T15:09:55.390Z,100564.00
2023-04-21T15:12:23.242Z,100557.00
2023-04-21T15:14:52.581Z,100556.00
2023-04-21T15:17:20.370Z,100544.00
2023-04-21T15:19:48.111Z,100537.00
2023-04-21T15:22:16.130Z,100543.00
2023-04-21T15:24:44.022Z,100539.00
2023-04-21T15:27:11.710Z,100529.00
2023-04-21T15:29:39.522Z,100534.00
2023-04-21T15:32:08.737Z,100529.00
2023-04-21T15:34:36.574Z,100528.00
2023-04-21T15:37:04.528Z,100534.00
2023-04-21T15:39:32.324Z,100529.00
2023-04-21T15:42:00.188Z,100525.00
2023-04-21T15:44:28.230Z,100529.00
2023-04-21T15:46:56.159Z,100538.00
2023-04-21T15:49:33.029Z,100527.00
2023-04-21T15:52:00.862Z,100532.00
2023-04-21T15:54:28.638Z,100538.00
2023-04-21T15:56:57.589Z,100526.00
2023-04-21T15:59:26.282Z,100523.00
2023-04-21T16:01:54.486Z,100516.00
2023-04-21T16:04:22.552Z,100519.00
2023-04-21T16:06:52.128Z,100507.00
2023-04-21T16:09:21.089Z,100513.00
2023-04-21T16:11:50.103Z,100521.00
2023-04-21T16:14:18.021Z,100513.00
2023-04-21T16:16:46.236Z,100496.00
2023-04-21T16:19:14.233Z,100508.00
2023-04-21T16:21:42.860Z,100509.00
2023-04-21T16:24:12.150Z,100498.00
2023-04-21T16:26:40.497Z,100494.00
2023-04-21T16:29:08.641Z,100490.00
2023-04-21T16:31:36.452Z,100486.00
2023-04-21T16:34:04.277Z,100498.00
2023-04-21T16:36:32.489Z,100487.00
2023-04-21T16:39:00.732Z,100481.00
2023-04-21T16:41:30.401Z,100484.00
2023-04-21T16:43:58.358Z,100482.00
2023-04-21T16:46:28.179Z,100473.00
2023-04-21T16:48:55.974Z,100479.00
2023-04-21T16:51:23.739Z,100481.00
2023-04-21T16:53:52.073Z,100469.00
2023-04-21T16:56:21.643Z,100476.00
2023-04-21T16:58:50.871Z,100470.00
2023-04-21T17:01:18.674Z,100461.00
2023-04-21T17:03:46.598Z,100466.00
2023-04-21T17:06:17.283Z,100469.00
2023-04-21T17:08:45.087Z,100462.00
2023-04-21T17:11:12.847Z,100462.00
2023-04-21T17:13:40.585Z,100467.00
2023-04-21T17:16:09.772Z,100468.00
2023-04-21T17:18:37.520Z,100465.00
2023-04-21T17:21:06.139Z,100465.00
2023-04-21T17:23:33.948Z,100463.00
2023-04-21T17:26:02.051Z,100463.00
2023-04-21T17:28:29.795Z,100451.00
2023-04-21T17:31:11.336Z,100448.00
2023-04-21T17:33:43.483Z,100463.00
2023-04-21T17:36:11.479Z,100453.00
2023-04-21T17:38:39.771Z,100440.00
2023-04-21T17:41:07.824Z,100446.00
2023-04-21T17:43:35.560Z,100439.00
2023-04-21T17:46:03.375Z,100435.00
2023-04-21T17:48:31.131Z,100437.00
2023-04-21T17:51:00.208Z,100443.00
2023-04-21T17:53:28.018Z,100437.00
2023-04-21T17:55:56.495Z,100437.00
2023-04-21T17:58:24.276Z,100437.00
2023-04-21T18:00:52.057Z,100440.00
2023-04-21T18:03:19.996Z,100435.00
2023-04-21T18:05:47.898Z,100440.00
2023-04-21T18:08:17.066Z,100438.00
2023-04-21T18:10:44.811Z,100430.00
2023-04-21T18:13:12.523Z,100440.00
2023-04-21T18:15:41.627Z,100441.00
2023-04-21T18:18:09.575Z,100437.00
2023-04-21T18:20:37.967Z,100428.00
2023-04-21T18:23:06.068Z,100427.00
2023-04-21T18:28:08.339Z,100433.00
2023-04-21T18:30:36.046Z,100428.00
2023-04-21T18:33:03.783Z,100431.00
2023-04-21T18:35:33.180Z,100439.00
2023-04-21T18:38:01.156Z,100420.00
2023-04-21T18:40:28.976Z,100429.00
2023-04-21T18:42:58.120Z,100441.00
2023-04-21T18:45:25.875Z,100431.00
2023-04-21T18:47:53.601Z,100431.00
2023-04-21T18:50:21.356Z,100430.00
2023-04-21T18:52:49.160Z,100442.00
2023-04-21T18:55:17.002Z,100426.00
2023-04-21T18:57:44.721Z,100431.00
2023-04-21T19:00:15.633Z,100416.00
2023-04-21T19:02:44.669Z,100436.00
2023-04-21T19:05:12.582Z,100422.00
2023-04-21T19:07:41.840Z,100434.00
2023-04-21T19:10:10.360Z,100427.00
2023-04-21T19:12:38.198Z,100434.00
2023-04-21T19:15:07.598Z,100440.00
2023-04-21T19:17:37.647Z,100444.00
2023-04-21T19:20:07.613Z,100438.00
2023-04-21T19:22:36.126Z,100446.00
2023-04-21T19:25:04.019Z,100442.00
2023-04-21T19:27:32.640Z,100441.00
2023-04-21T19:30:00.354Z,100443.00
2023-04-21T19:32:28.539Z,100450.00
2023-04-21T19:34:57.769Z,100446.00
2023-04-21T19:37:26.681Z,100449.00
2023-04-21T19:39:54.536Z,100443.00
2023-04-21T19:42:22.276Z,100448.00
2023-04-21T19:44:50.054Z,100454.00
2023-04-21T19:47:18.117Z,100437.00
2023-04-21T19:49:46.548Z,100451.00
2023-04-21T19:52:15.686Z,100456.00
2023-04-21T19:54:43.512Z,100451.00
2023-04-21T19:57:11.302Z,100441.00
2023-04-21T19:59:39.367Z,100437.00
2023-04-21T20:02:07.873Z,100438.00
2023-04-21T20:04:37.442Z,100433.00
2023-04-21T20:07:05.744Z,100428.00
2023-04-21T20:09:35.429Z,100442.00
2023-04-21T20:12:03.267Z,100437.00
2023-04-21T20:14:31.278Z,100426.00
2023-04-21T20:16:59.027Z,100432.00
2023-04-21T20:19:27.064Z,100423.00
2023-04-21T20:21:54.834Z,100441.00
2023-04-21T20:24:22.921Z,100429.00
2023-04-21T20:26:52.077Z,100427.00
2023-04-21T20:29:19.807Z,100422.00
2023-04-21T20:31:47.746Z,100424.00
2023-04-21T20:34:15.742Z,100429.00
2023-04-21T20:36:43.539Z,100428.00
2023-04-21T20:39:14.217Z,100432.00
2023-04-21T20:41:43.543Z,100426.00
2023-04-21T20:44:14.127Z,100428.00
2023-04-21T20:46:42.090Z,100420.00
2023-04-21T20:49:09.881Z,100433.00
2023-04-21T20:51:41.809Z,100443.00
2023-04-21T20:54:09.772Z,100429.00
2023-04-21T20:56:37.669Z,100434.00
2023-04-21T20:59:05.353Z,100432.00
2023-04-21T21:01:38.803Z,100436.00
2023-04-21T21:04:06.669Z,100437.00
2023-04-21T21:06:34.990Z,100438.00
2023-04-21T21:09:02.672Z,100437.00
2023-04-21T21:11:30.617Z,100430.00
2023-04-21T21:13:58.467Z,100434.00
2023-04-21T21:16:26.218Z,100441.00
2023-04-21T21:18:55.305Z,100443.00
2023-04-21T21:21:23.066Z,100445.00
2023-04-21T21:23:51.107Z,100434.00
2023-04-21T21:26:19.013Z,100413.00
2023-04-21T21:28:46.815Z,100435.00
2023-04-21T21:31:14.584Z,100439.00
2023-04-21T21:33:42.302Z,100436.00
2023-04-21T21:36:11.472Z,100434.00
2023-04-21T21:38:39.284Z,100443.00
2023-04-21T21:41:07.453Z,100435.00
2023-04-21T21:43:35.262Z,100436.00
2023-04-21T21:46:03.018Z,100430.00
2023-04-21T21:48:30.792Z,100442.00
2023-04-21T21:50:58.499Z,100437.00
2023-04-21T21:53:27.612Z,100434.00
2023-04-21T21:55:55.328Z,100434.00
2023-04-21T21:58:23.104Z,100422.00
2023-04-21T22:00:52.005Z,100430.00
2023-04-21T22:03:19.852Z,100429.00
2023-04-21T22:05:47.947Z,100430.00
2023-04-21T22:08:15.850Z,100425.00
2023-04-21T22:10:45.205Z,100425.00
2023-04-21T22:13:13.009Z,100428.00
2023-04-21T22:15:41.271Z,100432.00
2023-04-21T22:18:09.716Z,100429.00
2023-04-21T22:20:37.739Z,100415.00
2023-04-21T22:23:05.531Z,100416.00
2023-04-21T22:25:33.354Z,100438.00
2023-04-21T22:28:02.458Z,100423.00
2023-04-21T22:30:31.712Z,100432.00
2023-04-21T22:32:59.500Z,100429.00
2023-04-21T22:35:27.253Z,100425.00
2023-04-21T22:37:54.957Z,100424.00
2023-04-21T22:40:22.688Z,100423.00
2023-04-21T22:42:50.485Z,100423.00
2023-04-21T22:45:19.675Z,100427.00
2023-04-21T22:47:49.073Z,100422.00
2023-04-21T22:50:16.835Z,100422.00
2023-04-21T22:52:44.580Z,100417.00
2023-04-21T22:55:12.258Z,100411.00
2023-04-21T22:57:39.972Z,100417.00
2023-04-21T23:00:09.865Z,100410.00
2023-04-21T23:02:39.059Z,100394.00
2023-04-21T23:05:07.683Z,100396.00
2023-04-21T23:07:36.583Z,100392.00
2023-04-21T23:10:04.754Z,100399.00
2023-04-21T23:12:32.513Z,100407.00
2023-04-21T23:15:00.274Z,100392.00
2023-04-21T23:17:28.175Z,100402.00
2023-04-21T23:19:57.309Z,100394.00
2023-04-21T23:22:26.242Z,100392.00
2023-04-21T23:24:54.090Z,100387.00
2023-04-21T23:27:21.859Z,100382.00
2023-04-21T23:29:49.589Z,100383.00
2023-04-21T23:32:17.387Z,100380.00
2023-04-21T23:34:45.814Z,100376.00
2023-04-21T23:37:14.989Z,100377.00
2023-04-21T23:39:42.733Z,100381.00
2023-04-21T23:42:10.544Z,100373.00
2023-04-21T23:44:40.164Z,100363.00
2023-04-21T23:47:09.164Z,100369.00
2023-04-21T23:49:37.078Z,100360.00
2023-04-21T23:52:05.050Z,100370.00
2023-04-21T23:54:34.217Z,100378.00
2023-04-21T23:57:02.431Z,100373.00
2023-04-21T23:59:30.166Z,100363.00
